sensor_id;sensor_type;location;lat;lon;timestamp;P1;durP1;ratioP1;P2;durP2;ratioP2
46042;SDS011;32533;-33.854;18.542;2022-10-17T00:02:11;15.05;;;7.90;;
46042;SDS011;32533;-33.854;18.542;2022-10-17T00:05:17;14.70;;;6.30;;
46042;SDS011;32533;-33.854;18.542;2022-10-17T00:08:23;12.23;;;5.75;;
46042;SDS011;32533;-33.854;18.542;2022-10-17T00:11:29;14.32;;;6.00;;
46042;SDS011;32533;-33.854;18.542;2022-10-17T00:14:35;11.68;;;5.47;;
46042;SDS011;32533;-33.854;18.542;2022-10-17T00:17:41;14.18;;;6.72;;
46042;SDS011;32533;-33.854;18.542;2022-10-17T00:20:47;9.63;;;5.95;;
46042;SDS011;32533;-33.854;18.542;2022-10-17T00:23:53;9.70;;;6.35;;
46042;SDS011;32533;-33.854;18.542;2022-10-17T00:26:19;13.70;;;5.80;;
46042;SDS011;32533;-33.854;18.542;2022-10-17T00:28:47;15.07;;;6.82;;
46042;SDS011;32533;-33.854;18.542;2022-10-17T00:31:15;12.27;;;6.28;;
46042;SDS011;32533;-33.854;18.542;2022-10-17T00:33:43;14.95;;;8.38;;
46042;SDS011;32533;-33.854;18.542;2022-10-17T00:36:17;11.38;;;7.03;;
46042;SDS011;32533;-33.854;18.542;2022-10-17T00:38:46;18.08;;;6.93;;
46042;SDS011;32533;-33.854;18.542;2022-10-17T00:41:15;11.45;;;6.43;;
46042;SDS011;32533;-33.854;18.542;2022-10-17T00:43:50;12.95;;;6.57;;
46042;SDS011;32533;-33.854;18.542;2022-10-17T00:46:17;21.33;;;7.43;;
46042;SDS011;32533;-33.854;18.542;2022-10-17T00:48:43;13.45;;;7.15;;
46042;SDS011;32533;-33.854;18.542;2022-10-17T00:51:11;15.63;;;7.18;;
46042;SDS011;32533;-33.854;18.542;2022-10-17T00:53:37;15.82;;;7.75;;
46042;SDS011;32533;-33.854;18.542;2022-10-17T00:56:05;14.18;;;8.07;;
46042;SDS011;32533;-33.854;18.542;2022-10-17T00:58:31;13.52;;;6.10;;
46042;SDS011;32533;-33.854;18.542;2022-10-17T01:00:58;24.73;;;8.18;;
46042;SDS011;32533;-33.854;18.542;2022-10-17T01:03:26;12.50;;;5.72;;
46042;SDS011;32533;-33.854;18.542;2022-10-17T01:05:52;13.45;;;6.78;;
46042;SDS011;32533;-33.854;18.542;2022-10-17T01:08:19;24.98;;;7.70;;
46042;SDS011;32533;-33.854;18.542;2022-10-17T01:13:38;17.77;;;6.75;;
46042;SDS011;32533;-33.854;18.542;2022-10-17T01:16:35;23.25;;;8.20;;
46042;SDS011;32533;-33.854;18.542;2022-10-17T01:24:53;15.82;;;8.23;;
46042;SDS011;32533;-33.854;18.542;2022-10-17T01:27:25;24.23;;;8.68;;
46042;SDS011;32533;-33.854;18.542;2022-10-17T01:33:01;16.73;;;8.35;;
46042;SDS011;32533;-33.854;18.542;2022-10-17T01:41:15;19.85;;;7.45;;
46042;SDS011;32533;-33.854;18.542;2022-10-17T01:43:54;17.88;;;7.63;;
46042;SDS011;32533;-33.854;18.542;2022-10-17T01:46:28;25.77;;;7.32;;
46042;SDS011;32533;-33.854;18.542;2022-10-17T01:49:01;11.68;;;6.35;;
46042;SDS011;32533;-33.854;18.542;2022-10-17T01:51:36;12.65;;;6.15;;
46042;SDS011;32533;-33.854;18.542;2022-10-17T01:54:10;11.25;;;5.25;;
46042;SDS011;32533;-33.854;18.542;2022-10-17T01:56:38;15.93;;;5.45;;
46042;SDS011;32533;-33.854;18.542;2022-10-17T01:59:17;8.25;;;5.10;;
46042;SDS011;32533;-33.854;18.542;2022-10-17T02:01:47;7.78;;;4.68;;
46042;SDS011;32533;-33.854;18.542;2022-10-17T02:04:16;14.50;;;5.70;;
46042;SDS011;32533;-33.854;18.542;2022-10-17T02:06:43;9.45;;;4.90;;
46042;SDS011;32533;-33.854;18.542;2022-10-17T02:14:40;20.25;;;9.13;;
46042;SDS011;32533;-33.854;18.542;2022-10-17T02:20:16;30.83;;;8.65;;
46042;SDS011;32533;-33.854;18.542;2022-10-17T02:25:33;14.68;;;6.15;;
46042;SDS011;32533;-33.854;18.542;2022-10-17T02:28:29;15.38;;;6.70;;
46042;SDS011;32533;-33.854;18.542;2022-10-17T02:31:08;22.58;;;8.18;;
46042;SDS011;32533;-33.854;18.542;2022-10-17T02:33:53;15.32;;;7.50;;
46042;SDS011;32533;-33.854;18.542;2022-10-17T02:36:31;13.07;;;7.53;;
46042;SDS011;32533;-33.854;18.542;2022-10-17T02:39:03;18.45;;;7.78;;
46042;SDS011;32533;-33.854;18.542;2022-10-17T02:41:30;12.23;;;6.22;;
46042;SDS011;32533;-33.854;18.542;2022-10-17T02:43:58;17.67;;;7.97;;
46042;SDS011;32533;-33.854;18.542;2022-10-17T02:46:27;12.32;;;6.50;;
46042;SDS011;32533;-33.854;18.542;2022-10-17T02:49:19;14.23;;;7.20;;
46042;SDS011;32533;-33.854;18.542;2022-10-17T02:51:55;11.75;;;6.00;;
46042;SDS011;32533;-33.854;18.542;2022-10-17T02:54:42;11.07;;;6.25;;
46042;SDS011;32533;-33.854;18.542;2022-10-17T02:57:27;11.57;;;6.50;;
46042;SDS011;32533;-33.854;18.542;2022-10-17T03:00:00;11.85;;;5.40;;
46042;SDS011;32533;-33.854;18.542;2022-10-17T03:02:40;9.40;;;5.72;;
46042;SDS011;32533;-33.854;18.542;2022-10-17T03:05:12;10.13;;;5.40;;
46042;SDS011;32533;-33.854;18.542;2022-10-17T03:07:41;9.98;;;6.20;;
46042;SDS011;32533;-33.854;18.542;2022-10-17T03:10:07;10.25;;;5.57;;
46042;SDS011;32533;-33.854;18.542;2022-10-17T03:12:34;36.17;;;6.28;;
46042;SDS011;32533;-33.854;18.542;2022-10-17T03:15:00;18.27;;;6.35;;
46042;SDS011;32533;-33.854;18.542;2022-10-17T03:18:06;14.70;;;6.18;;
46042;SDS011;32533;-33.854;18.542;2022-10-17T03:21:12;25.58;;;6.90;;
46042;SDS011;32533;-33.854;18.542;2022-10-17T03:24:18;15.77;;;5.93;;
46042;SDS011;32533;-33.854;18.542;2022-10-17T03:27:24;13.13;;;7.10;;
46042;SDS011;32533;-33.854;18.542;2022-10-17T03:30:31;10.73;;;5.90;;
46042;SDS011;32533;-33.854;18.542;2022-10-17T03:32:58;15.52;;;7.30;;
46042;SDS011;32533;-33.854;18.542;2022-10-17T03:35:25;14.50;;;6.93;;
46042;SDS011;32533;-33.854;18.542;2022-10-17T03:37:54;13.85;;;6.40;;
46042;SDS011;32533;-33.854;18.542;2022-10-17T03:40:20;27.15;;;9.88;;
46042;SDS011;32533;-33.854;18.542;2022-10-17T03:42:47;23.95;;;12.70;;
46042;SDS011;32533;-33.854;18.542;2022-10-17T03:45:13;17.15;;;9.73;;
46042;SDS011;32533;-33.854;18.542;2022-10-17T03:47:40;14.77;;;8.02;;
46042;SDS011;32533;-33.854;18.542;2022-10-17T03:50:06;14.95;;;6.55;;
46042;SDS011;32533;-33.854;18.542;2022-10-17T03:52:33;12.82;;;5.45;;
46042;SDS011;32533;-33.854;18.542;2022-10-17T03:54:59;9.90;;;5.40;;
46042;SDS011;32533;-33.854;18.542;2022-10-17T03:57:26;15.52;;;6.28;;
46042;SDS011;32533;-33.854;18.542;2022-10-17T03:59:52;12.95;;;5.97;;
46042;SDS011;32533;-33.854;18.542;2022-10-17T04:02:19;9.63;;;5.32;;
46042;SDS011;32533;-33.854;18.542;2022-10-17T04:04:45;11.30;;;6.63;;
46042;SDS011;32533;-33.854;18.542;2022-10-17T04:07:12;12.93;;;5.82;;
46042;SDS011;32533;-33.854;18.542;2022-10-17T04:09:38;10.35;;;5.13;;
46042;SDS011;32533;-33.854;18.542;2022-10-17T04:12:05;17.00;;;6.00;;
46042;SDS011;32533;-33.854;18.542;2022-10-17T04:14:31;9.73;;;5.97;;
46042;SDS011;32533;-33.854;18.542;2022-10-17T04:16:58;12.25;;;4.57;;
46042;SDS011;32533;-33.854;18.542;2022-10-17T04:19:24;8.30;;;4.10;;
46042;SDS011;32533;-33.854;18.542;2022-10-17T04:21:51;8.15;;;3.72;;
46042;SDS011;32533;-33.854;18.542;2022-10-17T04:24:17;11.38;;;4.45;;
46042;SDS011;32533;-33.854;18.542;2022-10-17T04:26:44;9.00;;;4.03;;
46042;SDS011;32533;-33.854;18.542;2022-10-17T04:29:10;15.45;;;5.93;;
46042;SDS011;32533;-33.854;18.542;2022-10-17T04:31:37;14.55;;;5.93;;
46042;SDS011;32533;-33.854;18.542;2022-10-17T04:34:03;20.02;;;4.75;;
46042;SDS011;32533;-33.854;18.542;2022-10-17T04:36:30;10.82;;;5.38;;
46042;SDS011;32533;-33.854;18.542;2022-10-17T04:38:56;11.13;;;4.38;;
46042;SDS011;32533;-33.854;18.542;2022-10-17T04:41:24;11.20;;;4.57;;
46042;SDS011;32533;-33.854;18.542;2022-10-17T04:43:50;10.98;;;4.28;;
46042;SDS011;32533;-33.854;18.542;2022-10-17T04:46:17;13.27;;;5.10;;
46042;SDS011;32533;-33.854;18.542;2022-10-17T04:48:43;19.02;;;5.45;;
46042;SDS011;32533;-33.854;18.542;2022-10-17T04:51:11;15.43;;;5.20;;
46042;SDS011;32533;-33.854;18.542;2022-10-17T04:54:16;9.88;;;4.82;;
46042;SDS011;32533;-33.854;18.542;2022-10-17T04:57:22;26.58;;;4.97;;
46042;SDS011;32533;-33.854;18.542;2022-10-17T05:00:28;11.95;;;4.75;;
46042;SDS011;32533;-33.854;18.542;2022-10-17T05:03:34;8.98;;;4.40;;
46042;SDS011;32533;-33.854;18.542;2022-10-17T05:06:40;12.82;;;4.97;;
46042;SDS011;32533;-33.854;18.542;2022-10-17T05:09:49;14.05;;;4.60;;
46042;SDS011;32533;-33.854;18.542;2022-10-17T05:12:55;7.97;;;3.70;;
46042;SDS011;32533;-33.854;18.542;2022-10-17T05:16:01;12.40;;;4.80;;
46042;SDS011;32533;-33.854;18.542;2022-10-17T05:19:07;8.27;;;3.75;;
46042;SDS011;32533;-33.854;18.542;2022-10-17T05:22:13;7.93;;;3.60;;
46042;SDS011;32533;-33.854;18.542;2022-10-17T05:25:19;9.82;;;4.10;;
46042;SDS011;32533;-33.854;18.542;2022-10-17T05:28:25;14.52;;;5.30;;
46042;SDS011;32533;-33.854;18.542;2022-10-17T05:31:31;15.43;;;4.78;;
46042;SDS011;32533;-33.854;18.542;2022-10-17T05:34:37;12.77;;;4.60;;
46042;SDS011;32533;-33.854;18.542;2022-10-17T05:37:43;13.95;;;5.65;;
46042;SDS011;32533;-33.854;18.542;2022-10-17T05:40:49;13.00;;;4.30;;
46042;SDS011;32533;-33.854;18.542;2022-10-17T05:46:41;10.15;;;4.00;;
46042;SDS011;32533;-33.854;18.542;2022-10-17T05:52:34;9.77;;;3.72;;
46042;SDS011;32533;-33.854;18.542;2022-10-17T05:55:40;9.68;;;3.75;;
46042;SDS011;32533;-33.854;18.542;2022-10-17T05:58:46;10.40;;;4.05;;
46042;SDS011;32533;-33.854;18.542;2022-10-17T06:01:52;11.48;;;4.05;;
46042;SDS011;32533;-33.854;18.542;2022-10-17T06:04:58;8.75;;;4.53;;
46042;SDS011;32533;-33.854;18.542;2022-10-17T06:08:04;13.05;;;3.72;;
46042;SDS011;32533;-33.854;18.542;2022-10-17T06:10:33;13.55;;;4.32;;
46042;SDS011;32533;-33.854;18.542;2022-10-17T06:13:39;19.67;;;6.13;;
46042;SDS011;32533;-33.854;18.542;2022-10-17T06:16:45;13.43;;;4.07;;
46042;SDS011;32533;-33.854;18.542;2022-10-17T06:19:52;13.25;;;4.15;;
46042;SDS011;32533;-33.854;18.542;2022-10-17T06:22:58;21.42;;;5.18;;
46042;SDS011;32533;-33.854;18.542;2022-10-17T06:26:04;12.05;;;3.33;;
46042;SDS011;32533;-33.854;18.542;2022-10-17T06:29:11;11.95;;;4.05;;
46042;SDS011;32533;-33.854;18.542;2022-10-17T06:32:17;9.63;;;3.97;;
46042;SDS011;32533;-33.854;18.542;2022-10-17T06:35:23;10.48;;;4.80;;
46042;SDS011;32533;-33.854;18.542;2022-10-17T06:38:30;11.30;;;4.22;;
46042;SDS011;32533;-33.854;18.542;2022-10-17T06:41:36;9.02;;;4.03;;
46042;SDS011;32533;-33.854;18.542;2022-10-17T06:44:42;11.93;;;4.82;;
46042;SDS011;32533;-33.854;18.542;2022-10-17T06:47:48;13.25;;;4.68;;
46042;SDS011;32533;-33.854;18.542;2022-10-17T06:50:57;12.55;;;5.65;;
46042;SDS011;32533;-33.854;18.542;2022-10-17T06:54:00;13.60;;;4.75;;
46042;SDS011;32533;-33.854;18.542;2022-10-17T06:57:06;12.10;;;4.75;;
46042;SDS011;32533;-33.854;18.542;2022-10-17T07:00:12;15.43;;;4.72;;
46042;SDS011;32533;-33.854;18.542;2022-10-17T07:03:18;11.25;;;4.10;;
46042;SDS011;32533;-33.854;18.542;2022-10-17T07:06:24;11.52;;;5.65;;
46042;SDS011;32533;-33.854;18.542;2022-10-17T07:09:30;12.95;;;3.97;;
46042;SDS011;32533;-33.854;18.542;2022-10-17T07:12:36;10.15;;;4.20;;
46042;SDS011;32533;-33.854;18.542;2022-10-17T07:15:42;7.00;;;4.13;;
46042;SDS011;32533;-33.854;18.542;2022-10-17T07:21:34;13.10;;;6.38;;
46042;SDS011;32533;-33.854;18.542;2022-10-17T07:24:41;13.48;;;4.68;;
46042;SDS011;32533;-33.854;18.542;2022-10-17T07:30:33;13.00;;;4.25;;
46042;SDS011;32533;-33.854;18.542;2022-10-17T07:36:25;10.55;;;3.88;;
46042;SDS011;32533;-33.854;18.542;2022-10-17T07:39:31;17.85;;;4.30;;
46042;SDS011;32533;-33.854;18.542;2022-10-17T07:42:37;8.75;;;3.20;;
46042;SDS011;32533;-33.854;18.542;2022-10-17T07:45:43;12.55;;;5.30;;
46042;SDS011;32533;-33.854;18.542;2022-10-17T07:48:49;17.27;;;5.57;;
46042;SDS011;32533;-33.854;18.542;2022-10-17T07:51:55;18.25;;;6.53;;
46042;SDS011;32533;-33.854;18.542;2022-10-17T07:55:02;8.73;;;4.82;;
46042;SDS011;32533;-33.854;18.542;2022-10-17T07:58:09;11.30;;;4.95;;
46042;SDS011;32533;-33.854;18.542;2022-10-17T08:04:01;19.02;;;4.75;;
46042;SDS011;32533;-33.854;18.542;2022-10-17T08:07:07;18.75;;;5.07;;
46042;SDS011;32533;-33.854;18.542;2022-10-17T08:10:13;9.27;;;3.80;;
46042;SDS011;32533;-33.854;18.542;2022-10-17T08:13:20;9.60;;;3.50;;
46042;SDS011;32533;-33.854;18.542;2022-10-17T08:16:25;7.72;;;3.72;;
46042;SDS011;32533;-33.854;18.542;2022-10-17T08:19:31;8.23;;;4.05;;
46042;SDS011;32533;-33.854;18.542;2022-10-17T08:22:37;9.32;;;4.35;;
46042;SDS011;32533;-33.854;18.542;2022-10-17T08:25:43;6.05;;;3.90;;
46042;SDS011;32533;-33.854;18.542;2022-10-17T08:28:49;4.80;;;3.15;;
46042;SDS011;32533;-33.854;18.542;2022-10-17T08:31:58;9.25;;;3.58;;
46042;SDS011;32533;-33.854;18.542;2022-10-17T08:35:04;11.98;;;5.15;;
46042;SDS011;32533;-33.854;18.542;2022-10-17T08:38:10;12.60;;;4.18;;
46042;SDS011;32533;-33.854;18.542;2022-10-17T08:46:48;16.15;;;4.97;;
46042;SDS011;32533;-33.854;18.542;2022-10-17T08:50:00;12.75;;;4.82;;
46042;SDS011;32533;-33.854;18.542;2022-10-17T08:52:56;14.50;;;4.90;;
46042;SDS011;32533;-33.854;18.542;2022-10-17T08:55:49;13.35;;;4.57;;
46042;SDS011;32533;-33.854;18.542;2022-10-17T08:59:00;16.48;;;4.28;;
46042;SDS011;32533;-33.854;18.542;2022-10-17T09:06:26;19.35;;;5.63;;
46042;SDS011;32533;-33.854;18.542;2022-10-17T09:08:39;20.27;;;5.90;;
46042;SDS011;32533;-33.854;18.542;2022-10-17T09:19:48;19.58;;;6.55;;
46042;SDS011;32533;-33.854;18.542;2022-10-17T09:25:44;21.58;;;6.68;;
46042;SDS011;32533;-33.854;18.542;2022-10-17T09:28:53;8.23;;;4.68;;
46042;SDS011;32533;-33.854;18.542;2022-10-17T09:31:24;12.30;;;4.50;;
46042;SDS011;32533;-33.854;18.542;2022-10-17T09:33:56;12.73;;;5.32;;
46042;SDS011;32533;-33.854;18.542;2022-10-17T09:36:32;16.48;;;5.95;;
46042;SDS011;32533;-33.854;18.542;2022-10-17T09:39:04;14.45;;;6.68;;
46042;SDS011;32533;-33.854;18.542;2022-10-17T09:41:43;17.88;;;7.47;;
46042;SDS011;32533;-33.854;18.542;2022-10-17T09:44:24;14.80;;;6.20;;
46042;SDS011;32533;-33.854;18.542;2022-10-17T09:47:00;13.30;;;4.95;;
46042;SDS011;32533;-33.854;18.542;2022-10-17T09:49:34;13.57;;;4.90;;
46042;SDS011;32533;-33.854;18.542;2022-10-17T09:52:04;9.38;;;5.07;;
46042;SDS011;32533;-33.854;18.542;2022-10-17T09:57:10;10.80;;;4.63;;
46042;SDS011;32533;-33.854;18.542;2022-10-17T09:59:39;11.68;;;4.15;;
46042;SDS011;32533;-33.854;18.542;2022-10-17T10:05:20;11.23;;;3.65;;
46042;SDS011;32533;-33.854;18.542;2022-10-17T10:07:40;12.00;;;4.72;;
46042;SDS011;32533;-33.854;18.542;2022-10-17T10:10:22;8.80;;;3.65;;
46042;SDS011;32533;-33.854;18.542;2022-10-17T10:13:14;9.25;;;3.88;;
46042;SDS011;32533;-33.854;18.542;2022-10-17T10:15:48;9.45;;;3.63;;
46042;SDS011;32533;-33.854;18.542;2022-10-17T10:21:01;8.75;;;3.65;;
46042;SDS011;32533;-33.854;18.542;2022-10-17T10:23:38;7.97;;;3.53;;
46042;SDS011;32533;-33.854;18.542;2022-10-17T10:26:16;13.48;;;4.65;;
46042;SDS011;32533;-33.854;18.542;2022-10-17T10:28:49;12.48;;;4.13;;
46042;SDS011;32533;-33.854;18.542;2022-10-17T10:31:25;9.60;;;4.50;;
46042;SDS011;32533;-33.854;18.542;2022-10-17T10:33:57;10.23;;;3.47;;
46042;SDS011;32533;-33.854;18.542;2022-10-17T10:36:40;14.38;;;4.18;;
46042;SDS011;32533;-33.854;18.542;2022-10-17T10:42:30;7.55;;;3.90;;
46042;SDS011;32533;-33.854;18.542;2022-10-17T10:48:04;7.95;;;3.53;;
46042;SDS011;32533;-33.854;18.542;2022-10-17T10:54:00;6.30;;;2.78;;
46042;SDS011;32533;-33.854;18.542;2022-10-17T10:57:16;6.63;;;3.78;;
46042;SDS011;32533;-33.854;18.542;2022-10-17T11:03:28;19.45;;;3.80;;
46042;SDS011;32533;-33.854;18.542;2022-10-17T11:06:21;10.82;;;4.13;;
46042;SDS011;32533;-33.854;18.542;2022-10-17T11:15:19;8.75;;;3.08;;
46042;SDS011;32533;-33.854;18.542;2022-10-17T11:18:18;8.88;;;4.32;;
46042;SDS011;32533;-33.854;18.542;2022-10-17T11:21:19;6.88;;;3.95;;
46042;SDS011;32533;-33.854;18.542;2022-10-17T11:24:36;4.72;;;3.60;;
46042;SDS011;32533;-33.854;18.542;2022-10-17T11:30:26;11.15;;;4.25;;
46042;SDS011;32533;-33.854;18.542;2022-10-17T11:33:13;11.20;;;3.80;;
46042;SDS011;32533;-33.854;18.542;2022-10-17T11:36:36;5.95;;;3.20;;
46042;SDS011;32533;-33.854;18.542;2022-10-17T11:42:18;11.23;;;3.95;;
46042;SDS011;32533;-33.854;18.542;2022-10-17T11:45:23;7.32;;;3.38;;
46042;SDS011;32533;-33.854;18.542;2022-10-17T11:51:24;7.22;;;2.88;;
46042;SDS011;32533;-33.854;18.542;2022-10-17T11:57:32;5.68;;;2.97;;
46042;SDS011;32533;-33.854;18.542;2022-10-17T12:00:55;8.32;;;3.40;;
46042;SDS011;32533;-33.854;18.542;2022-10-17T12:07:21;9.73;;;3.78;;
46042;SDS011;32533;-33.854;18.542;2022-10-17T12:15:51;10.35;;;4.10;;
46042;SDS011;32533;-33.854;18.542;2022-10-17T12:22:16;10.32;;;4.28;;
46042;SDS011;32533;-33.854;18.542;2022-10-17T12:24:39;16.90;;;4.22;;
46042;SDS011;32533;-33.854;18.542;2022-10-17T12:27:39;11.30;;;3.88;;
46042;SDS011;32533;-33.854;18.542;2022-10-17T12:30:31;10.60;;;4.22;;
46042;SDS011;32533;-33.854;18.542;2022-10-17T12:33:30;10.40;;;3.20;;
46042;SDS011;32533;-33.854;18.542;2022-10-17T12:36:36;10.90;;;4.75;;
46042;SDS011;32533;-33.854;18.542;2022-10-17T12:39:41;5.40;;;3.15;;
46042;SDS011;32533;-33.854;18.542;2022-10-17T12:42:48;7.03;;;3.05;;
46042;SDS011;32533;-33.854;18.542;2022-10-17T12:51:14;19.90;;;5.10;;
46042;SDS011;32533;-33.854;18.542;2022-10-17T12:53:48;15.05;;;4.65;;
46042;SDS011;32533;-33.854;18.542;2022-10-17T12:56:34;10.65;;;3.67;;
46042;SDS011;32533;-33.854;18.542;2022-10-17T13:01:45;6.30;;;3.05;;
46042;SDS011;32533;-33.854;18.542;2022-10-17T13:04:15;7.80;;;4.40;;
46042;SDS011;32533;-33.854;18.542;2022-10-17T13:06:46;13.00;;;4.13;;
46042;SDS011;32533;-33.854;18.542;2022-10-17T13:11:54;8.00;;;3.78;;
46042;SDS011;32533;-33.854;18.542;2022-10-17T13:14:24;8.00;;;4.15;;
46042;SDS011;32533;-33.854;18.542;2022-10-17T13:16:59;12.95;;;3.60;;
46042;SDS011;32533;-33.854;18.542;2022-10-17T13:19:38;8.55;;;3.72;;
46042;SDS011;32533;-33.854;18.542;2022-10-17T13:22:14;10.25;;;3.45;;
46042;SDS011;32533;-33.854;18.542;2022-10-17T13:24:43;8.93;;;3.37;;
46042;SDS011;32533;-33.854;18.542;2022-10-17T13:27:29;6.40;;;3.08;;
46042;SDS011;32533;-33.854;18.542;2022-10-17T13:29:58;5.35;;;4.07;;
46042;SDS011;32533;-33.854;18.542;2022-10-17T13:32:27;10.50;;;4.35;;
46042;SDS011;32533;-33.854;18.542;2022-10-17T13:35:04;15.25;;;5.07;;
46042;SDS011;32533;-33.854;18.542;2022-10-17T13:37:33;8.50;;;3.25;;
46042;SDS011;32533;-33.854;18.542;2022-10-17T13:40:00;7.25;;;4.72;;
46042;SDS011;32533;-33.854;18.542;2022-10-17T13:42:34;21.17;;;5.53;;
46042;SDS011;32533;-33.854;18.542;2022-10-17T13:45:04;9.98;;;4.78;;
46042;SDS011;32533;-33.854;18.542;2022-10-17T13:47:42;9.80;;;3.83;;
46042;SDS011;32533;-33.854;18.542;2022-10-17T13:50:15;10.05;;;3.80;;
46042;SDS011;32533;-33.854;18.542;2022-10-17T13:52:48;12.52;;;3.63;;
46042;SDS011;32533;-33.854;18.542;2022-10-17T13:55:29;5.13;;;3.13;;
46042;SDS011;32533;-33.854;18.542;2022-10-17T13:57:56;8.48;;;3.20;;
46042;SDS011;32533;-33.854;18.542;2022-10-17T14:00:41;11.75;;;3.50;;
46042;SDS011;32533;-33.854;18.542;2022-10-17T14:03:09;8.05;;;3.58;;
46042;SDS011;32533;-33.854;18.542;2022-10-17T14:05:56;9.38;;;4.22;;
46042;SDS011;32533;-33.854;18.542;2022-10-17T14:08:25;7.88;;;3.63;;
46042;SDS011;32533;-33.854;18.542;2022-10-17T14:10:52;7.35;;;4.18;;
46042;SDS011;32533;-33.854;18.542;2022-10-17T14:13:22;7.18;;;3.35;;
46042;SDS011;32533;-33.854;18.542;2022-10-17T14:15:55;10.90;;;4.30;;
46042;SDS011;32533;-33.854;18.542;2022-10-17T14:18:28;9.38;;;4.95;;
46042;SDS011;32533;-33.854;18.542;2022-10-17T14:20:57;8.52;;;3.78;;
46042;SDS011;32533;-33.854;18.542;2022-10-17T14:23:35;9.98;;;4.22;;
46042;SDS011;32533;-33.854;18.542;2022-10-17T14:26:26;8.38;;;4.38;;
46042;SDS011;32533;-33.854;18.542;2022-10-17T14:29:21;7.20;;;4.15;;
46042;SDS011;32533;-33.854;18.542;2022-10-17T14:32:14;10.00;;;3.30;;
46042;SDS011;32533;-33.854;18.542;2022-10-17T14:34:42;12.75;;;4.85;;
46042;SDS011;32533;-33.854;18.542;2022-10-17T14:40:16;9.90;;;4.00;;
46042;SDS011;32533;-33.854;18.542;2022-10-17T14:42:44;17.40;;;4.30;;
46042;SDS011;32533;-33.854;18.542;2022-10-17T14:45:25;11.23;;;4.85;;
46042;SDS011;32533;-33.854;18.542;2022-10-17T14:47:53;12.23;;;3.88;;
46042;SDS011;32533;-33.854;18.542;2022-10-17T14:50:24;13.85;;;5.65;;
46042;SDS011;32533;-33.854;18.542;2022-10-17T14:53:16;18.10;;;4.38;;
46042;SDS011;32533;-33.854;18.542;2022-10-17T14:55:55;13.02;;;4.70;;
46042;SDS011;32533;-33.854;18.542;2022-10-17T14:58:26;15.50;;;3.50;;
46042;SDS011;32533;-33.854;18.542;2022-10-17T15:00:55;15.90;;;4.78;;
46042;SDS011;32533;-33.854;18.542;2022-10-17T15:03:22;11.15;;;3.88;;
46042;SDS011;32533;-33.854;18.542;2022-10-17T15:05:49;14.68;;;4.57;;
46042;SDS011;32533;-33.854;18.542;2022-10-17T15:08:18;10.95;;;4.20;;
46042;SDS011;32533;-33.854;18.542;2022-10-17T15:10:45;10.90;;;4.13;;
46042;SDS011;32533;-33.854;18.542;2022-10-17T15:13:13;9.45;;;4.75;;
46042;SDS011;32533;-33.854;18.542;2022-10-17T15:15:40;19.15;;;4.25;;
46042;SDS011;32533;-33.854;18.542;2022-10-17T15:18:09;11.90;;;5.18;;
46042;SDS011;32533;-33.854;18.542;2022-10-17T15:20:37;19.23;;;6.78;;
46042;SDS011;32533;-33.854;18.542;2022-10-17T15:23:04;10.23;;;4.10;;
46042;SDS011;32533;-33.854;18.542;2022-10-17T15:25:30;18.23;;;5.03;;
46042;SDS011;32533;-33.854;18.542;2022-10-17T15:27:58;12.07;;;3.53;;
46042;SDS011;32533;-33.854;18.542;2022-10-17T15:30:26;15.60;;;4.55;;
46042;SDS011;32533;-33.854;18.542;2022-10-17T15:32:56;33.28;;;6.85;;
46042;SDS011;32533;-33.854;18.542;2022-10-17T15:35:23;12.68;;;4.60;;
46042;SDS011;32533;-33.854;18.542;2022-10-17T15:37:50;13.23;;;4.22;;
46042;SDS011;32533;-33.854;18.542;2022-10-17T15:40:19;20.27;;;6.85;;
46042;SDS011;32533;-33.854;18.542;2022-10-17T15:42:53;25.83;;;15.98;;
46042;SDS011;32533;-33.854;18.542;2022-10-17T15:45:20;31.30;;;9.48;;
46042;SDS011;32533;-33.854;18.542;2022-10-17T15:47:51;16.88;;;7.28;;
46042;SDS011;32533;-33.854;18.542;2022-10-17T15:50:23;15.90;;;6.15;;
46042;SDS011;32533;-33.854;18.542;2022-10-17T15:52:53;18.60;;;9.00;;
46042;SDS011;32533;-33.854;18.542;2022-10-17T15:55:19;19.77;;;11.68;;
46042;SDS011;32533;-33.854;18.542;2022-10-17T15:57:46;13.00;;;5.70;;
46042;SDS011;32533;-33.854;18.542;2022-10-17T16:00:18;12.00;;;4.53;;
46042;SDS011;32533;-33.854;18.542;2022-10-17T18:23:49;6.18;;;3.25;;
46042;SDS011;32533;-33.854;18.542;2022-10-17T18:26:17;7.95;;;2.50;;
46042;SDS011;32533;-33.854;18.542;2022-10-17T18:28:44;18.42;;;7.60;;
46042;SDS011;32533;-33.854;18.542;2022-10-17T18:31:14;19.50;;;9.65;;
46042;SDS011;32533;-33.854;18.542;2022-10-17T18:33:52;26.73;;;18.48;;
46042;SDS011;32533;-33.854;18.542;2022-10-17T18:36:20;20.65;;;12.65;;
46042;SDS011;32533;-33.854;18.542;2022-10-17T18:38:47;18.45;;;10.85;;
46042;SDS011;32533;-33.854;18.542;2022-10-17T18:41:15;11.32;;;6.65;;
46042;SDS011;32533;-33.854;18.542;2022-10-17T18:43:52;6.72;;;4.10;;
46042;SDS011;32533;-33.854;18.542;2022-10-17T18:46:20;6.70;;;2.88;;
46042;SDS011;32533;-33.854;18.542;2022-10-17T18:48:49;6.53;;;3.10;;
46042;SDS011;32533;-33.854;18.542;2022-10-17T18:51:17;17.80;;;5.03;;
46042;SDS011;32533;-33.854;18.542;2022-10-17T18:53:46;13.02;;;8.88;;
46042;SDS011;32533;-33.854;18.542;2022-10-17T18:56:15;18.38;;;8.48;;
46042;SDS011;32533;-33.854;18.542;2022-10-17T18:58:42;15.50;;;6.28;;
46042;SDS011;32533;-33.854;18.542;2022-10-17T19:01:10;9.32;;;5.03;;
46042;SDS011;32533;-33.854;18.542;2022-10-17T19:03:57;9.70;;;4.00;;
46042;SDS011;32533;-33.854;18.542;2022-10-17T19:06:25;14.95;;;4.57;;
46042;SDS011;32533;-33.854;18.542;2022-10-17T19:08:59;3.63;;;2.47;;
46042;SDS011;32533;-33.854;18.542;2022-10-17T19:11:46;8.82;;;3.63;;
46042;SDS011;32533;-33.854;18.542;2022-10-17T19:14:12;13.07;;;3.17;;
46042;SDS011;32533;-33.854;18.542;2022-10-17T19:16:42;7.57;;;3.50;;
46042;SDS011;32533;-33.854;18.542;2022-10-17T19:19:20;6.88;;;4.03;;
46042;SDS011;32533;-33.854;18.542;2022-10-17T19:21:48;9.90;;;3.58;;
46042;SDS011;32533;-33.854;18.542;2022-10-17T19:24:17;5.28;;;3.05;;
46042;SDS011;32533;-33.854;18.542;2022-10-17T19:26:45;7.38;;;3.58;;
46042;SDS011;32533;-33.854;18.542;2022-10-17T19:29:15;10.18;;;3.75;;
46042;SDS011;32533;-33.854;18.542;2022-10-17T19:31:42;6.82;;;3.03;;
46042;SDS011;32533;-33.854;18.542;2022-10-17T19:34:48;5.10;;;3.05;;
46042;SDS011;32533;-33.854;18.542;2022-10-17T19:37:54;8.40;;;4.00;;
46042;SDS011;32533;-33.854;18.542;2022-10-17T19:41:03;7.13;;;2.65;;
46042;SDS011;32533;-33.854;18.542;2022-10-17T19:44:06;5.50;;;1.92;;
46042;SDS011;32533;-33.854;18.542;2022-10-17T19:46:33;9.70;;;2.45;;
46042;SDS011;32533;-33.854;18.542;2022-10-17T19:49:00;8.27;;;4.25;;
46042;SDS011;32533;-33.854;18.542;2022-10-17T19:51:27;4.38;;;2.03;;
46042;SDS011;32533;-33.854;18.542;2022-10-17T19:53:54;7.18;;;3.78;;
46042;SDS011;32533;-33.854;18.542;2022-10-17T19:56:24;5.05;;;2.75;;
46042;SDS011;32533;-33.854;18.542;2022-10-17T19:58:53;6.90;;;3.10;;
46042;SDS011;32533;-33.854;18.542;2022-10-17T20:01:24;6.00;;;3.30;;
46042;SDS011;32533;-33.854;18.542;2022-10-17T20:03:53;3.35;;;1.90;;
46042;SDS011;32533;-33.854;18.542;2022-10-17T20:06:20;5.30;;;2.40;;
46042;SDS011;32533;-33.854;18.542;2022-10-17T20:08:47;7.30;;;3.53;;
46042;SDS011;32533;-33.854;18.542;2022-10-17T20:11:17;8.52;;;2.25;;
46042;SDS011;32533;-33.854;18.542;2022-10-17T20:13:45;9.63;;;2.38;;
46042;SDS011;32533;-33.854;18.542;2022-10-17T20:16:14;6.38;;;2.33;;